Wokal Field Glasgow International Airport
KGGW : now visible

Airfield :











YOU CAN JOIN US ON...

 
LOGIN :

Register | Disclaimer

   EN    FR    IT 

 









Legend :    VFR   Marginal VFR   IFR   Intensive IFR   Very Intensive IFR
Visi :
Ceiling :
>= 8 km
>= 3000ft
5 to 8 km
1000 to 3000 ft
1500m to 5 km
500 to 1000 ft
800 to 1500m
200 to 500 ft
< 800m
< 200 ft
Symbols :   Thunderstorms  Fog  Heavy snow  Heavy precipitations  Wind > 20 kt







- Airport Elevation : 2296 ft
- IATA code : GGW


KGGW - Wokal Field Glasgow International

CURRENT METAR :
  • 222353Z AUTO 16009KT 10SM CLR 33/13 A2970 RMK AO2 SLP043 T03330128 10339 20289 55007

EXPIRED METARs :
  • 222253Z AUTO 15012KT 10SM CLR 34/12 A2970 RMK AO2 SLP041 T03390122
  • 222153Z AUTO 14010KT 10SM CLR 33/13 A2971 RMK AO2 SLP045 T03280133

TAF KGGW
Valid from the 23 at 00:00 until the 24 at 00:00 UTC


222320Z 2300/2324 14012KT P6SM VCTS BKN100CB
FM230300 05007KT 6SM -TSRA OVC080CB
FM230600 36007KT 6SM -SHRA OVC045
FM230700 34009KT P6SM OVC060
TEMPO 2307/2309 6SM -SHRA OVC024
FM230900 34009KT P6SM OVC020
No reported NOTAMs for that airfield.



MET'MAP, your aeronautical weather chart ! - Copyright ORBIFLY December 2007 - Disclaimer

ORBIFLY MET'MAP TEAM :

Programming & Development : Alexandra Zaïnal
Concept & Development : Baudouin d'Aumeries
Co-Development & Prog : Marc-Olivier Méhu
Technical & hardware support : Manuel Goepfert

Contact : metmap@orbifly.com




SOURCES & CREDITS :

   NOAA       Earth
Advisory